Adairsville, Georgia
Current Conditions -  °F | °C
As of 11:53 AM on Wednesday 26 Nov 2014 (Local Time) from KRMG Reporting Station
Clear Clear  
Wind Chill: 51°   Ceiling: Unl
Heat Index: 51°   Visibility: 10mi
Dew Point: 27°   Wind: 6mph
Humidity: 39%   Direction: 280°W
Pressure: 30.12"   Gusts: NA
Location:  34.37°N, 84.93°W
Report Text: KRMG 261653Z AUTO 28005KT 10SM CLR 11/M03 A3012 RMK AO2 SLP196 T01061028
Loading
Personal Weather Stations






























Interactive Weather Map New forecast layout! Learn more

10-Day Weather Forecast

Advertisements
Track Severe Weather on mobile